sensor_id;sensor_type;location;lat;lon;timestamp;P1;durP1;ratioP1;P2;durP2;ratioP2
80647;SDS011;70012;0.000;0.000;2023-06-22T00:00:58;12.93;;;5.25;;
80647;SDS011;70012;0.000;0.000;2023-06-22T00:03:25;7.75;;;4.25;;
80647;SDS011;70012;0.000;0.000;2023-06-22T00:05:52;9.45;;;4.35;;
80647;SDS011;70012;0.000;0.000;2023-06-22T00:08:20;10.40;;;3.85;;
80647;SDS011;70012;0.000;0.000;2023-06-22T00:10:47;7.20;;;4.45;;
80647;SDS011;70012;0.000;0.000;2023-06-22T00:13:13;7.68;;;4.90;;
80647;SDS011;70012;0.000;0.000;2023-06-22T00:15:42;11.02;;;4.13;;
80647;SDS011;70012;0.000;0.000;2023-06-22T00:18:09;5.80;;;4.20;;
80647;SDS011;70012;0.000;0.000;2023-06-22T00:20:36;8.18;;;4.53;;
80647;SDS011;70012;0.000;0.000;2023-06-22T00:23:04;13.18;;;4.70;;
80647;SDS011;70012;0.000;0.000;2023-06-22T00:25:38;8.32;;;4.40;;
80647;SDS011;70012;0.000;0.000;2023-06-22T00:28:08;8.27;;;4.00;;
80647;SDS011;70012;0.000;0.000;2023-06-22T00:30:35;6.53;;;4.43;;
80647;SDS011;70012;0.000;0.000;2023-06-22T00:33:02;6.63;;;4.82;;
80647;SDS011;70012;0.000;0.000;2023-06-22T00:35:29;8.07;;;4.47;;
80647;SDS011;70012;0.000;0.000;2023-06-22T00:37:59;6.30;;;4.32;;
80647;SDS011;70012;0.000;0.000;2023-06-22T00:40:28;8.80;;;5.05;;
80647;SDS011;70012;0.000;0.000;2023-06-22T00:42:55;8.30;;;4.15;;
80647;SDS011;70012;0.000;0.000;2023-06-22T00:45:26;6.97;;;4.45;;
80647;SDS011;70012;0.000;0.000;2023-06-22T00:47:54;6.97;;;4.88;;
80647;SDS011;70012;0.000;0.000;2023-06-22T00:50:26;8.23;;;4.70;;
80647;SDS011;70012;0.000;0.000;2023-06-22T00:52:56;7.18;;;4.60;;
80647;SDS011;70012;0.000;0.000;2023-06-22T00:55:26;7.60;;;4.60;;
80647;SDS011;70012;0.000;0.000;2023-06-22T00:57:54;10.07;;;5.00;;
80647;SDS011;70012;0.000;0.000;2023-06-22T01:00:25;10.30;;;4.80;;
80647;SDS011;70012;0.000;0.000;2023-06-22T01:02:53;7.60;;;4.40;;
80647;SDS011;70012;0.000;0.000;2023-06-22T01:05:20;7.90;;;4.82;;
80647;SDS011;70012;0.000;0.000;2023-06-22T01:08:00;7.07;;;4.88;;
80647;SDS011;70012;0.000;0.000;2023-06-22T01:13:04;6.47;;;5.28;;
80647;SDS011;70012;0.000;0.000;2023-06-22T01:18:06;7.03;;;4.90;;
80647;SDS011;70012;0.000;0.000;2023-06-22T01:20:36;6.70;;;5.00;;
80647;SDS011;70012;0.000;0.000;2023-06-22T01:25:57;7.18;;;5.00;;
80647;SDS011;70012;0.000;0.000;2023-06-22T01:31:08;8.38;;;5.75;;
80647;SDS011;70012;0.000;0.000;2023-06-22T01:33:39;7.78;;;5.40;;
80647;SDS011;70012;0.000;0.000;2023-06-22T01:36:09;8.52;;;5.72;;
80647;SDS011;70012;0.000;0.000;2023-06-22T01:38:37;9.55;;;5.78;;
80647;SDS011;70012;0.000;0.000;2023-06-22T01:41:05;8.88;;;5.20;;
80647;SDS011;70012;0.000;0.000;2023-06-22T01:43:32;6.45;;;5.35;;
80647;SDS011;70012;0.000;0.000;2023-06-22T01:46:01;6.78;;;5.20;;
80647;SDS011;70012;0.000;0.000;2023-06-22T01:48:30;7.40;;;5.15;;
80647;SDS011;70012;0.000;0.000;2023-06-22T01:50:58;8.60;;;5.18;;
80647;SDS011;70012;0.000;0.000;2023-06-22T01:53:25;8.82;;;5.32;;
80647;SDS011;70012;0.000;0.000;2023-06-22T01:55:52;8.95;;;5.57;;
80647;SDS011;70012;0.000;0.000;2023-06-22T01:58:20;8.98;;;5.90;;
80647;SDS011;70012;0.000;0.000;2023-06-22T02:01:00;10.35;;;6.07;;
80647;SDS011;70012;0.000;0.000;2023-06-22T02:03:51;9.38;;;7.10;;
80647;SDS011;70012;0.000;0.000;2023-06-22T02:06:27;9.77;;;6.35;;
80647;SDS011;70012;0.000;0.000;2023-06-22T02:09:02;10.30;;;6.30;;
80647;SDS011;70012;0.000;0.000;2023-06-22T02:11:32;10.50;;;5.90;;
80647;SDS011;70012;0.000;0.000;2023-06-22T02:14:01;9.63;;;6.72;;
80647;SDS011;70012;0.000;0.000;2023-06-22T02:16:30;10.43;;;6.35;;
80647;SDS011;70012;0.000;0.000;2023-06-22T02:18:57;6.82;;;5.90;;
80647;SDS011;70012;0.000;0.000;2023-06-22T02:21:32;9.30;;;5.65;;
80647;SDS011;70012;0.000;0.000;2023-06-22T02:24:01;9.80;;;6.72;;
80647;SDS011;70012;0.000;0.000;2023-06-22T02:26:28;7.50;;;6.40;;
80647;SDS011;70012;0.000;0.000;2023-06-22T02:28:55;8.45;;;6.75;;
80647;SDS011;70012;0.000;0.000;2023-06-22T02:31:25;10.35;;;6.45;;
80647;SDS011;70012;0.000;0.000;2023-06-22T02:34:00;8.25;;;6.70;;
80647;SDS011;70012;0.000;0.000;2023-06-22T02:36:27;10.02;;;6.70;;
80647;SDS011;70012;0.000;0.000;2023-06-22T02:38:57;9.73;;;6.45;;
80647;SDS011;70012;0.000;0.000;2023-06-22T02:41:27;8.65;;;6.35;;
80647;SDS011;70012;0.000;0.000;2023-06-22T02:43:54;9.98;;;6.53;;
80647;SDS011;70012;0.000;0.000;2023-06-22T02:46:21;8.27;;;5.38;;
80647;SDS011;70012;0.000;0.000;2023-06-22T02:48:48;8.93;;;6.25;;
80647;SDS011;70012;0.000;0.000;2023-06-22T02:51:17;7.95;;;6.25;;
80647;SDS011;70012;0.000;0.000;2023-06-22T02:53:43;10.25;;;6.15;;
80647;SDS011;70012;0.000;0.000;2023-06-22T02:56:11;7.57;;;5.50;;
80647;SDS011;70012;0.000;0.000;2023-06-22T02:58:39;9.20;;;5.43;;
80647;SDS011;70012;0.000;0.000;2023-06-22T03:01:06;11.70;;;6.40;;
80647;SDS011;70012;0.000;0.000;2023-06-22T03:03:33;9.13;;;6.45;;
80647;SDS011;70012;0.000;0.000;2023-06-22T03:06:00;8.55;;;6.30;;
80647;SDS011;70012;0.000;0.000;2023-06-22T03:08:31;11.20;;;5.93;;
80647;SDS011;70012;0.000;0.000;2023-06-22T03:10:58;9.32;;;5.72;;
80647;SDS011;70012;0.000;0.000;2023-06-22T03:13:27;11.80;;;6.00;;
80647;SDS011;70012;0.000;0.000;2023-06-22T03:15:54;10.35;;;6.25;;
80647;SDS011;70012;0.000;0.000;2023-06-22T03:18:20;8.10;;;5.80;;
80647;SDS011;70012;0.000;0.000;2023-06-22T03:20:49;10.98;;;6.10;;
80647;SDS011;70012;0.000;0.000;2023-06-22T03:23:16;9.82;;;6.00;;
80647;SDS011;70012;0.000;0.000;2023-06-22T03:25:43;13.70;;;6.65;;
80647;SDS011;70012;0.000;0.000;2023-06-22T03:28:14;11.40;;;6.28;;
80647;SDS011;70012;0.000;0.000;2023-06-22T03:30:41;11.60;;;5.88;;
80647;SDS011;70012;0.000;0.000;2023-06-22T03:33:07;14.98;;;7.20;;
80647;SDS011;70012;0.000;0.000;2023-06-22T03:35:34;13.63;;;6.45;;
80647;SDS011;70012;0.000;0.000;2023-06-22T03:38:01;13.43;;;7.40;;
80647;SDS011;70012;0.000;0.000;2023-06-22T03:40:27;12.25;;;6.05;;
80647;SDS011;70012;0.000;0.000;2023-06-22T03:42:55;9.10;;;5.53;;
80647;SDS011;70012;0.000;0.000;2023-06-22T03:45:21;9.57;;;5.60;;
80647;SDS011;70012;0.000;0.000;2023-06-22T03:47:48;10.05;;;5.90;;
80647;SDS011;70012;0.000;0.000;2023-06-22T03:50:15;11.73;;;6.35;;
80647;SDS011;70012;0.000;0.000;2023-06-22T03:52:44;11.88;;;5.43;;
80647;SDS011;70012;0.000;0.000;2023-06-22T03:55:12;11.77;;;6.50;;
80647;SDS011;70012;0.000;0.000;2023-06-22T03:57:39;12.45;;;6.22;;
80647;SDS011;70012;0.000;0.000;2023-06-22T04:00:06;8.35;;;5.53;;
80647;SDS011;70012;0.000;0.000;2023-06-22T04:02:34;12.73;;;6.35;;
80647;SDS011;70012;0.000;0.000;2023-06-22T04:05:01;8.10;;;6.13;;
80647;SDS011;70012;0.000;0.000;2023-06-22T04:07:30;10.60;;;5.95;;
80647;SDS011;70012;0.000;0.000;2023-06-22T04:09:56;10.88;;;6.35;;
80647;SDS011;70012;0.000;0.000;2023-06-22T04:12:23;8.75;;;6.88;;
80647;SDS011;70012;0.000;0.000;2023-06-22T04:14:50;12.30;;;6.28;;
80647;SDS011;70012;0.000;0.000;2023-06-22T04:17:17;10.43;;;6.38;;
80647;SDS011;70012;0.000;0.000;2023-06-22T04:19:44;10.13;;;6.40;;
80647;SDS011;70012;0.000;0.000;2023-06-22T04:22:10;11.38;;;6.90;;
80647;SDS011;70012;0.000;0.000;2023-06-22T04:24:38;12.35;;;6.95;;
80647;SDS011;70012;0.000;0.000;2023-06-22T04:27:05;12.88;;;6.40;;
80647;SDS011;70012;0.000;0.000;2023-06-22T04:29:31;11.88;;;6.57;;
80647;SDS011;70012;0.000;0.000;2023-06-22T04:32:01;13.45;;;6.32;;
80647;SDS011;70012;0.000;0.000;2023-06-22T04:34:31;11.90;;;6.32;;
80647;SDS011;70012;0.000;0.000;2023-06-22T04:36:58;11.00;;;6.95;;
80647;SDS011;70012;0.000;0.000;2023-06-22T04:39:25;8.25;;;5.75;;
80647;SDS011;70012;0.000;0.000;2023-06-22T04:41:53;14.07;;;6.32;;
80647;SDS011;70012;0.000;0.000;2023-06-22T04:44:21;14.38;;;6.88;;
80647;SDS011;70012;0.000;0.000;2023-06-22T04:46:52;10.65;;;6.72;;
80647;SDS011;70012;0.000;0.000;2023-06-22T04:49:20;14.52;;;8.18;;
80647;SDS011;70012;0.000;0.000;2023-06-22T04:51:48;11.25;;;6.30;;
80647;SDS011;70012;0.000;0.000;2023-06-22T04:54:18;14.02;;;7.13;;
80647;SDS011;70012;0.000;0.000;2023-06-22T04:56:45;8.27;;;6.60;;
80647;SDS011;70012;0.000;0.000;2023-06-22T04:59:13;9.75;;;7.07;;
80647;SDS011;70012;0.000;0.000;2023-06-22T05:01:41;11.48;;;7.07;;
80647;SDS011;70012;0.000;0.000;2023-06-22T05:04:08;15.07;;;7.18;;
80647;SDS011;70012;0.000;0.000;2023-06-22T05:06:35;11.00;;;7.18;;
80647;SDS011;70012;0.000;0.000;2023-06-22T05:09:05;12.15;;;7.22;;
80647;SDS011;70012;0.000;0.000;2023-06-22T05:11:31;9.98;;;7.25;;
80647;SDS011;70012;0.000;0.000;2023-06-22T05:13:58;13.20;;;6.97;;
80647;SDS011;70012;0.000;0.000;2023-06-22T05:16:25;11.55;;;6.90;;
80647;SDS011;70012;0.000;0.000;2023-06-22T05:18:54;10.45;;;7.10;;
80647;SDS011;70012;0.000;0.000;2023-06-22T05:21:22;10.52;;;7.80;;
80647;SDS011;70012;0.000;0.000;2023-06-22T05:23:51;9.68;;;6.63;;
80647;SDS011;70012;0.000;0.000;2023-06-22T05:26:19;9.40;;;7.03;;
80647;SDS011;70012;0.000;0.000;2023-06-22T05:28:47;11.30;;;7.22;;
80647;SDS011;70012;0.000;0.000;2023-06-22T05:31:14;14.27;;;7.70;;
80647;SDS011;70012;0.000;0.000;2023-06-22T05:33:43;16.92;;;7.53;;
80647;SDS011;70012;0.000;0.000;2023-06-22T05:36:10;10.43;;;7.10;;
80647;SDS011;70012;0.000;0.000;2023-06-22T05:38:37;10.60;;;7.28;;
80647;SDS011;70012;0.000;0.000;2023-06-22T05:41:04;13.20;;;7.13;;
80647;SDS011;70012;0.000;0.000;2023-06-22T05:43:31;11.57;;;7.40;;
80647;SDS011;70012;0.000;0.000;2023-06-22T05:45:59;10.65;;;7.35;;
80647;SDS011;70012;0.000;0.000;2023-06-22T05:48:27;13.23;;;7.95;;
80647;SDS011;70012;0.000;0.000;2023-06-22T05:50:54;11.45;;;7.72;;
80647;SDS011;70012;0.000;0.000;2023-06-22T05:53:21;11.73;;;8.10;;
80647;SDS011;70012;0.000;0.000;2023-06-22T05:55:50;12.55;;;8.10;;
80647;SDS011;70012;0.000;0.000;2023-06-22T05:58:17;10.48;;;7.97;;
80647;SDS011;70012;0.000;0.000;2023-06-22T06:00:44;10.75;;;8.07;;
80647;SDS011;70012;0.000;0.000;2023-06-22T06:03:12;9.80;;;7.65;;
80647;SDS011;70012;0.000;0.000;2023-06-22T06:05:43;11.85;;;7.88;;
80647;SDS011;70012;0.000;0.000;2023-06-22T06:08:12;13.55;;;8.38;;
80647;SDS011;70012;0.000;0.000;2023-06-22T06:10:39;15.98;;;8.45;;
80647;SDS011;70012;0.000;0.000;2023-06-22T06:13:06;11.88;;;8.40;;
80647;SDS011;70012;0.000;0.000;2023-06-22T06:15:33;15.00;;;9.00;;
80647;SDS011;70012;0.000;0.000;2023-06-22T06:18:01;13.93;;;10.07;;
80647;SDS011;70012;0.000;0.000;2023-06-22T06:20:30;12.32;;;9.43;;
80647;SDS011;70012;0.000;0.000;2023-06-22T06:22:58;12.00;;;8.52;;
80647;SDS011;70012;0.000;0.000;2023-06-22T06:25:25;11.88;;;9.23;;
80647;SDS011;70012;0.000;0.000;2023-06-22T06:27:52;11.93;;;8.32;;
80647;SDS011;70012;0.000;0.000;2023-06-22T06:30:21;11.88;;;9.75;;
80647;SDS011;70012;0.000;0.000;2023-06-22T06:32:49;12.40;;;9.32;;
80647;SDS011;70012;0.000;0.000;2023-06-22T06:35:16;11.90;;;8.32;;
80647;SDS011;70012;0.000;0.000;2023-06-22T06:37:45;11.32;;;9.18;;
80647;SDS011;70012;0.000;0.000;2023-06-22T06:40:13;11.07;;;9.20;;
80647;SDS011;70012;0.000;0.000;2023-06-22T06:42:42;11.95;;;8.43;;
80647;SDS011;70012;0.000;0.000;2023-06-22T06:45:12;14.77;;;9.25;;
80647;SDS011;70012;0.000;0.000;2023-06-22T06:47:39;11.40;;;9.13;;
80647;SDS011;70012;0.000;0.000;2023-06-22T06:50:06;13.30;;;8.75;;
80647;SDS011;70012;0.000;0.000;2023-06-22T06:52:35;14.18;;;9.27;;
80647;SDS011;70012;0.000;0.000;2023-06-22T06:55:04;11.88;;;9.65;;
80647;SDS011;70012;0.000;0.000;2023-06-22T06:57:38;14.73;;;9.38;;
80647;SDS011;70012;0.000;0.000;2023-06-22T07:00:06;12.43;;;9.32;;
80647;SDS011;70012;0.000;0.000;2023-06-22T07:02:38;11.88;;;8.90;;
80647;SDS011;70012;0.000;0.000;2023-06-22T07:05:06;12.45;;;9.52;;
80647;SDS011;70012;0.000;0.000;2023-06-22T07:07:33;11.13;;;9.60;;
80647;SDS011;70012;0.000;0.000;2023-06-22T07:10:04;15.20;;;10.25;;
80647;SDS011;70012;0.000;0.000;2023-06-22T07:12:32;14.57;;;9.82;;
80647;SDS011;70012;0.000;0.000;2023-06-22T07:15:02;16.75;;;10.50;;
80647;SDS011;70012;0.000;0.000;2023-06-22T07:17:30;13.25;;;10.20;;
80647;SDS011;70012;0.000;0.000;2023-06-22T07:19:58;12.13;;;10.35;;
80647;SDS011;70012;0.000;0.000;2023-06-22T07:22:24;12.75;;;9.98;;
80647;SDS011;70012;0.000;0.000;2023-06-22T07:24:53;15.73;;;10.30;;
80647;SDS011;70012;0.000;0.000;2023-06-22T07:27:19;11.73;;;9.88;;
80647;SDS011;70012;0.000;0.000;2023-06-22T07:29:47;14.18;;;9.50;;
80647;SDS011;70012;0.000;0.000;2023-06-22T07:32:15;12.02;;;9.82;;
80647;SDS011;70012;0.000;0.000;2023-06-22T07:34:42;11.85;;;9.30;;
80647;SDS011;70012;0.000;0.000;2023-06-22T07:37:09;13.35;;;10.30;;
80647;SDS011;70012;0.000;0.000;2023-06-22T07:39:36;11.05;;;9.57;;
80647;SDS011;70012;0.000;0.000;2023-06-22T07:42:04;12.77;;;10.18;;
80647;SDS011;70012;0.000;0.000;2023-06-22T07:44:31;12.68;;;9.75;;
80647;SDS011;70012;0.000;0.000;2023-06-22T07:46:58;13.10;;;9.90;;
80647;SDS011;70012;0.000;0.000;2023-06-22T07:49:24;18.42;;;10.77;;
80647;SDS011;70012;0.000;0.000;2023-06-22T07:51:51;13.40;;;9.65;;
80647;SDS011;70012;0.000;0.000;2023-06-22T07:54:18;11.20;;;9.82;;
80647;SDS011;70012;0.000;0.000;2023-06-22T07:56:45;12.85;;;10.45;;
80647;SDS011;70012;0.000;0.000;2023-06-22T07:59:12;11.93;;;9.48;;
80647;SDS011;70012;0.000;0.000;2023-06-22T08:01:40;12.60;;;8.90;;
80647;SDS011;70012;0.000;0.000;2023-06-22T08:04:07;14.10;;;8.48;;
80647;SDS011;70012;0.000;0.000;2023-06-22T08:06:35;12.25;;;9.13;;
80647;SDS011;70012;0.000;0.000;2023-06-22T08:09:01;11.75;;;8.77;;
80647;SDS011;70012;0.000;0.000;2023-06-22T08:11:31;11.88;;;9.05;;
80647;SDS011;70012;0.000;0.000;2023-06-22T08:13:57;10.50;;;8.18;;
80647;SDS011;70012;0.000;0.000;2023-06-22T08:16:25;10.60;;;8.10;;
80647;SDS011;70012;0.000;0.000;2023-06-22T08:18:51;11.70;;;8.20;;
80647;SDS011;70012;0.000;0.000;2023-06-22T08:21:19;9.45;;;7.80;;
80647;SDS011;70012;0.000;0.000;2023-06-22T08:23:46;10.30;;;8.25;;
80647;SDS011;70012;0.000;0.000;2023-06-22T08:26:12;10.73;;;7.50;;
80647;SDS011;70012;0.000;0.000;2023-06-22T08:28:40;10.23;;;8.68;;
80647;SDS011;70012;0.000;0.000;2023-06-22T08:31:06;11.02;;;8.55;;
80647;SDS011;70012;0.000;0.000;2023-06-22T08:33:33;13.07;;;8.10;;
80647;SDS011;70012;0.000;0.000;2023-06-22T08:36:00;11.80;;;8.68;;
80647;SDS011;70012;0.000;0.000;2023-06-22T08:38:26;10.45;;;8.50;;
80647;SDS011;70012;0.000;0.000;2023-06-22T08:40:53;10.90;;;8.43;;
80647;SDS011;70012;0.000;0.000;2023-06-22T08:43:20;11.93;;;8.43;;
80647;SDS011;70012;0.000;0.000;2023-06-22T08:45:46;14.73;;;8.82;;
80647;SDS011;70012;0.000;0.000;2023-06-22T08:48:14;9.88;;;8.88;;
80647;SDS011;70012;0.000;0.000;2023-06-22T08:50:40;10.25;;;8.02;;
80647;SDS011;70012;0.000;0.000;2023-06-22T08:53:07;9.43;;;7.93;;
80647;SDS011;70012;0.000;0.000;2023-06-22T08:55:34;12.02;;;9.60;;
80647;SDS011;70012;0.000;0.000;2023-06-22T08:58:00;10.35;;;8.13;;
80647;SDS011;70012;0.000;0.000;2023-06-22T09:00:27;10.02;;;8.00;;
80647;SDS011;70012;0.000;0.000;2023-06-22T09:02:55;10.82;;;9.23;;
80647;SDS011;70012;0.000;0.000;2023-06-22T09:05:25;10.02;;;8.50;;
80647;SDS011;70012;0.000;0.000;2023-06-22T09:07:53;10.38;;;9.02;;
80647;SDS011;70012;0.000;0.000;2023-06-22T09:10:22;9.32;;;8.10;;
80647;SDS011;70012;0.000;0.000;2023-06-22T09:12:49;9.07;;;7.63;;
80647;SDS011;70012;0.000;0.000;2023-06-22T09:15:15;10.02;;;8.13;;
80647;SDS011;70012;0.000;0.000;2023-06-22T09:17:44;9.85;;;8.73;;
80647;SDS011;70012;0.000;0.000;2023-06-22T09:20:13;9.23;;;7.88;;
80647;SDS011;70012;0.000;0.000;2023-06-22T09:22:40;9.90;;;8.43;;
80647;SDS011;70012;0.000;0.000;2023-06-22T09:25:06;10.82;;;7.65;;
80647;SDS011;70012;0.000;0.000;2023-06-22T09:27:34;10.95;;;7.82;;
80647;SDS011;70012;0.000;0.000;2023-06-22T09:30:00;11.07;;;8.65;;
80647;SDS011;70012;0.000;0.000;2023-06-22T09:32:27;10.25;;;8.77;;
80647;SDS011;70012;0.000;0.000;2023-06-22T09:34:54;9.10;;;7.78;;
80647;SDS011;70012;0.000;0.000;2023-06-22T09:37:20;9.23;;;8.05;;
80647;SDS011;70012;0.000;0.000;2023-06-22T09:39:47;8.73;;;7.55;;
80647;SDS011;70012;0.000;0.000;2023-06-22T09:42:14;9.95;;;7.88;;
80647;SDS011;70012;0.000;0.000;2023-06-22T09:44:40;8.90;;;8.00;;
80647;SDS011;70012;0.000;0.000;2023-06-22T09:47:07;10.07;;;8.65;;
80647;SDS011;70012;0.000;0.000;2023-06-22T09:49:34;9.02;;;7.70;;
80647;SDS011;70012;0.000;0.000;2023-06-22T09:54:42;10.73;;;7.72;;
80647;SDS011;70012;0.000;0.000;2023-06-22T09:57:09;9.65;;;8.18;;
80647;SDS011;70012;0.000;0.000;2023-06-22T09:59:36;10.07;;;7.68;;
80647;SDS011;70012;0.000;0.000;2023-06-22T10:02:03;11.73;;;7.93;;
80647;SDS011;70012;0.000;0.000;2023-06-22T10:04:29;11.48;;;8.00;;
80647;SDS011;70012;0.000;0.000;2023-06-22T10:06:57;13.45;;;9.02;;
80647;SDS011;70012;0.000;0.000;2023-06-22T10:09:24;9.02;;;7.88;;
80647;SDS011;70012;0.000;0.000;2023-06-22T10:11:50;12.98;;;8.48;;
80647;SDS011;70012;0.000;0.000;2023-06-22T10:14:17;12.57;;;8.98;;
80647;SDS011;70012;0.000;0.000;2023-06-22T10:16:44;12.25;;;8.63;;
80647;SDS011;70012;0.000;0.000;2023-06-22T10:19:11;12.27;;;8.70;;
80647;SDS011;70012;0.000;0.000;2023-06-22T10:21:38;9.50;;;8.45;;
80647;SDS011;70012;0.000;0.000;2023-06-22T10:24:05;11.80;;;9.18;;
80647;SDS011;70012;0.000;0.000;2023-06-22T10:26:35;10.88;;;9.18;;
80647;SDS011;70012;0.000;0.000;2023-06-22T10:29:02;12.95;;;9.43;;
80647;SDS011;70012;0.000;0.000;2023-06-22T10:31:32;12.00;;;10.05;;
80647;SDS011;70012;0.000;0.000;2023-06-22T10:33:59;11.15;;;9.27;;
80647;SDS011;70012;0.000;0.000;2023-06-22T10:36:27;12.77;;;9.80;;
80647;SDS011;70012;0.000;0.000;2023-06-22T10:38:54;13.95;;;11.00;;
80647;SDS011;70012;0.000;0.000;2023-06-22T10:41:21;10.98;;;9.32;;
80647;SDS011;70012;0.000;0.000;2023-06-22T10:43:49;10.85;;;9.13;;
80647;SDS011;70012;0.000;0.000;2023-06-22T10:46:15;15.13;;;10.38;;
80647;SDS011;70012;0.000;0.000;2023-06-22T10:48:42;14.15;;;10.98;;
80647;SDS011;70012;0.000;0.000;2023-06-22T10:51:09;15.13;;;11.00;;
80647;SDS011;70012;0.000;0.000;2023-06-22T10:53:36;14.85;;;10.15;;
80647;SDS011;70012;0.000;0.000;2023-06-22T10:56:03;17.52;;;10.60;;
80647;SDS011;70012;0.000;0.000;2023-06-22T10:58:30;19.67;;;11.90;;
80647;SDS011;70012;0.000;0.000;2023-06-22T11:00:57;17.67;;;11.73;;
80647;SDS011;70012;0.000;0.000;2023-06-22T11:03:25;16.15;;;13.20;;
80647;SDS011;70012;0.000;0.000;2023-06-22T11:05:52;16.65;;;11.23;;
80647;SDS011;70012;0.000;0.000;2023-06-22T11:08:18;14.25;;;12.00;;
80647;SDS011;70012;0.000;0.000;2023-06-22T11:10:45;19.13;;;14.15;;
80647;SDS011;70012;0.000;0.000;2023-06-22T11:13:12;18.42;;;13.30;;
80647;SDS011;70012;0.000;0.000;2023-06-22T11:15:40;16.17;;;12.50;;
80647;SDS011;70012;0.000;0.000;2023-06-22T11:18:06;16.73;;;11.98;;
80647;SDS011;70012;0.000;0.000;2023-06-22T11:20:33;17.10;;;13.00;;
80647;SDS011;70012;0.000;0.000;2023-06-22T11:23:05;19.50;;;12.63;;
80647;SDS011;70012;0.000;0.000;2023-06-22T11:25:35;14.25;;;11.68;;
80647;SDS011;70012;0.000;0.000;2023-06-22T11:28:03;16.10;;;12.30;;
80647;SDS011;70012;0.000;0.000;2023-06-22T11:30:30;15.18;;;12.85;;
80647;SDS011;70012;0.000;0.000;2023-06-22T11:32:58;17.92;;;13.05;;
80647;SDS011;70012;0.000;0.000;2023-06-22T11:35:26;14.60;;;12.07;;
80647;SDS011;70012;0.000;0.000;2023-06-22T11:37:56;13.60;;;10.82;;
80647;SDS011;70012;0.000;0.000;2023-06-22T11:40:25;14.68;;;12.73;;
80647;SDS011;70012;0.000;0.000;2023-06-22T11:42:53;16.60;;;13.20;;
80647;SDS011;70012;0.000;0.000;2023-06-22T11:45:22;15.05;;;12.18;;
80647;SDS011;70012;0.000;0.000;2023-06-22T11:47:50;12.73;;;10.93;;
80647;SDS011;70012;0.000;0.000;2023-06-22T11:50:23;9.93;;;7.85;;
80647;SDS011;70012;0.000;0.000;2023-06-22T11:53:11;8.27;;;6.55;;
80647;SDS011;70012;0.000;0.000;2023-06-22T11:55:49;10.02;;;7.43;;
80647;SDS011;70012;0.000;0.000;2023-06-22T11:58:23;14.60;;;9.55;;
80647;SDS011;70012;0.000;0.000;2023-06-22T12:00:53;11.88;;;10.45;;
80647;SDS011;70012;0.000;0.000;2023-06-22T12:03:21;14.75;;;11.32;;
80647;SDS011;70012;0.000;0.000;2023-06-22T12:05:59;12.73;;;9.68;;
80647;SDS011;70012;0.000;0.000;2023-06-22T12:08:34;11.15;;;9.90;;
80647;SDS011;70012;0.000;0.000;2023-06-22T12:11:04;12.65;;;10.07;;
80647;SDS011;70012;0.000;0.000;2023-06-22T12:13:31;13.80;;;10.70;;
80647;SDS011;70012;0.000;0.000;2023-06-22T12:15:59;13.32;;;10.82;;
80647;SDS011;70012;0.000;0.000;2023-06-22T12:18:25;15.88;;;11.10;;
80647;SDS011;70012;0.000;0.000;2023-06-22T12:20:52;14.48;;;10.77;;
80647;SDS011;70012;0.000;0.000;2023-06-22T12:23:20;12.18;;;10.45;;
80647;SDS011;70012;0.000;0.000;2023-06-22T12:25:49;12.38;;;10.95;;
80647;SDS011;70012;0.000;0.000;2023-06-22T12:28:43;11.95;;;10.27;;
80647;SDS011;70012;0.000;0.000;2023-06-22T12:31:10;11.52;;;9.68;;
80647;SDS011;70012;0.000;0.000;2023-06-22T12:33:45;15.13;;;11.32;;
80647;SDS011;70012;0.000;0.000;2023-06-22T12:36:37;11.38;;;10.15;;
80647;SDS011;70012;0.000;0.000;2023-06-22T12:39:59;11.77;;;9.45;;
80647;SDS011;70012;0.000;0.000;2023-06-22T12:42:32;17.33;;;10.75;;
80647;SDS011;70012;0.000;0.000;2023-06-22T12:45:32;11.07;;;8.93;;
80647;SDS011;70012;0.000;0.000;2023-06-22T12:48:01;13.15;;;9.70;;
80647;SDS011;70012;0.000;0.000;2023-06-22T12:50:28;11.63;;;9.73;;
80647;SDS011;70012;0.000;0.000;2023-06-22T12:52:58;11.85;;;9.80;;
80647;SDS011;70012;0.000;0.000;2023-06-22T12:55:27;10.35;;;8.98;;
80647;SDS011;70012;0.000;0.000;2023-06-22T12:58:02;9.90;;;8.90;;
80647;SDS011;70012;0.000;0.000;2023-06-22T13:00:34;10.00;;;8.65;;
80647;SDS011;70012;0.000;0.000;2023-06-22T13:03:01;9.98;;;8.98;;
80647;SDS011;70012;0.000;0.000;2023-06-22T13:05:28;10.68;;;8.40;;
80647;SDS011;70012;0.000;0.000;2023-06-22T13:07:55;10.93;;;9.48;;
80647;SDS011;70012;0.000;0.000;2023-06-22T13:10:24;10.38;;;8.35;;
80647;SDS011;70012;0.000;0.000;2023-06-22T13:13:02;10.57;;;7.25;;
80647;SDS011;70012;0.000;0.000;2023-06-22T13:16:10;9.70;;;6.82;;
80647;SDS011;70012;0.000;0.000;2023-06-22T13:18:44;11.80;;;8.30;;
80647;SDS011;70012;0.000;0.000;2023-06-22T13:25:04;8.32;;;7.50;;
80647;SDS011;70012;0.000;0.000;2023-06-22T13:27:55;7.47;;;6.70;;
80647;SDS011;70012;0.000;0.000;2023-06-22T13:30:25;8.90;;;7.00;;
80647;SDS011;70012;0.000;0.000;2023-06-22T13:33:14;7.75;;;6.95;;
80647;SDS011;70012;0.000;0.000;2023-06-22T13:35:45;6.93;;;6.03;;
80647;SDS011;70012;0.000;0.000;2023-06-22T13:38:13;11.57;;;7.82;;
80647;SDS011;70012;0.000;0.000;2023-06-22T13:40:43;8.95;;;7.68;;
80647;SDS011;70012;0.000;0.000;2023-06-22T13:43:17;10.68;;;8.52;;
80647;SDS011;70012;0.000;0.000;2023-06-22T13:45:44;11.55;;;8.52;;
80647;SDS011;70012;0.000;0.000;2023-06-22T13:48:13;9.43;;;8.27;;
80647;SDS011;70012;0.000;0.000;2023-06-22T13:50:41;9.05;;;7.28;;
80647;SDS011;70012;0.000;0.000;2023-06-22T13:53:11;8.20;;;6.97;;
80647;SDS011;70012;0.000;0.000;2023-06-22T13:55:40;8.60;;;7.70;;
80647;SDS011;70012;0.000;0.000;2023-06-22T13:58:09;9.45;;;8.45;;
80647;SDS011;70012;0.000;0.000;2023-06-22T14:00:37;9.20;;;8.30;;
80647;SDS011;70012;0.000;0.000;2023-06-22T14:03:07;11.65;;;8.50;;
80647;SDS011;70012;0.000;0.000;2023-06-22T14:05:35;14.25;;;8.68;;
80647;SDS011;70012;0.000;0.000;2023-06-22T14:08:03;9.63;;;7.93;;
80647;SDS011;70012;0.000;0.000;2023-06-22T14:10:45;9.60;;;7.43;;
80647;SDS011;70012;0.000;0.000;2023-06-22T14:13:12;10.00;;;8.07;;
80647;SDS011;70012;0.000;0.000;2023-06-22T14:15:39;10.07;;;9.07;;
80647;SDS011;70012;0.000;0.000;2023-06-22T14:18:05;11.02;;;8.15;;
80647;SDS011;70012;0.000;0.000;2023-06-22T14:20:35;10.98;;;8.52;;
80647;SDS011;70012;0.000;0.000;2023-06-22T14:23:02;10.18;;;8.43;;
80647;SDS011;70012;0.000;0.000;2023-06-22T14:25:29;12.23;;;8.55;;
80647;SDS011;70012;0.000;0.000;2023-06-22T14:27:56;12.02;;;9.35;;
80647;SDS011;70012;0.000;0.000;2023-06-22T14:30:23;9.85;;;8.02;;
80647;SDS011;70012;0.000;0.000;2023-06-22T14:32:50;9.60;;;8.30;;
80647;SDS011;70012;0.000;0.000;2023-06-22T14:35:20;9.55;;;8.05;;
80647;SDS011;70012;0.000;0.000;2023-06-22T14:37:47;9.57;;;7.75;;
80647;SDS011;70012;0.000;0.000;2023-06-22T14:40:17;10.45;;;8.35;;
80647;SDS011;70012;0.000;0.000;2023-06-22T14:42:45;10.38;;;8.23;;
80647;SDS011;70012;0.000;0.000;2023-06-22T14:45:12;10.55;;;8.98;;
80647;SDS011;70012;0.000;0.000;2023-06-22T14:47:39;11.35;;;9.18;;
80647;SDS011;70012;0.000;0.000;2023-06-22T14:50:09;17.60;;;10.43;;
80647;SDS011;70012;0.000;0.000;2023-06-22T14:52:37;13.23;;;9.75;;
80647;SDS011;70012;0.000;0.000;2023-06-22T14:55:04;14.13;;;10.40;;
80647;SDS011;70012;0.000;0.000;2023-06-22T14:57:31;13.27;;;10.32;;
80647;SDS011;70012;0.000;0.000;2023-06-22T15:00:02;13.80;;;9.73;;
80647;SDS011;70012;0.000;0.000;2023-06-22T15:02:30;17.98;;;10.63;;
80647;SDS011;70012;0.000;0.000;2023-06-22T15:08:40;13.30;;;10.80;;
80647;SDS011;70012;0.000;0.000;2023-06-22T15:11:09;15.35;;;8.80;;
80647;SDS011;70012;0.000;0.000;2023-06-22T15:13:40;11.40;;;9.00;;
80647;SDS011;70012;0.000;0.000;2023-06-22T15:16:08;11.52;;;8.30;;
80647;SDS011;70012;0.000;0.000;2023-06-22T15:18:35;10.75;;;8.30;;
80647;SDS011;70012;0.000;0.000;2023-06-22T15:21:04;9.70;;;7.65;;